createdAt,value
2018-10-02T00:00:18.816Z,11.84
2018-10-02T00:02:47.955Z,11.81
2018-10-02T00:05:17.760Z,11.73
2018-10-02T00:07:47.735Z,11.79
2018-10-02T00:10:17.723Z,11.88
2018-10-02T00:12:52.958Z,11.92
2018-10-02T00:15:22.115Z,11.71
2018-10-02T00:17:51.272Z,11.73
2018-10-02T00:20:20.722Z,11.65
2018-10-02T00:22:49.870Z,11.68
2018-10-02T00:25:19.034Z,11.64
2018-10-02T00:27:48.180Z,11.75
2018-10-02T00:30:17.687Z,11.78
2018-10-02T00:32:47.762Z,11.69
2018-10-02T00:35:16.918Z,11.56
2018-10-02T00:37:46.086Z,11.54
2018-10-02T00:40:15.226Z,11.37
2018-10-02T00:42:44.359Z,11.44
2018-10-02T00:45:13.499Z,11.44
2018-10-02T00:47:42.650Z,11.44
2018-10-02T00:50:11.823Z,11.40
2018-10-02T00:52:41.010Z,11.52
2018-10-02T00:55:10.137Z,11.41
2018-10-02T00:57:39.279Z,11.41
2018-10-02T01:00:08.462Z,11.23
2018-10-02T01:02:37.609Z,11.33
2018-10-02T01:05:06.903Z,11.29
2018-10-02T01:07:36.062Z,11.25
2018-10-02T01:10:05.203Z,11.27
2018-10-02T01:12:34.334Z,11.12
2018-10-02T01:15:03.492Z,11.08
2018-10-02T01:17:32.635Z,11.17
2018-10-02T01:20:01.794Z,11.23
2018-10-02T01:22:30.965Z,11.14
2018-10-02T01:25:00.120Z,11.18
2018-10-02T01:27:29.570Z,11.14
2018-10-02T01:29:58.725Z,11.03
2018-10-02T01:32:27.912Z,11.10
2018-10-02T01:34:57.143Z,11.07
2018-10-02T01:37:26.285Z,11.17
2018-10-02T01:39:55.439Z,11.09
2018-10-02T01:42:24.587Z,11.20
2018-10-02T01:44:54.119Z,11.24
2018-10-02T01:47:23.250Z,11.13
2018-10-02T01:49:52.394Z,11.05
2018-10-02T01:52:21.521Z,11.03
2018-10-02T01:54:50.678Z,11.16
2018-10-02T01:57:19.846Z,11.11
2018-10-02T01:59:48.982Z,11.02
2018-10-02T02:02:18.126Z,11.01
2018-10-02T02:04:47.966Z,11.04
2018-10-02T02:07:17.098Z,11.04
2018-10-02T02:09:46.227Z,10.94
2018-10-02T02:12:15.366Z,11.01
2018-10-02T02:14:44.610Z,10.91
2018-10-02T02:17:13.749Z,10.96
2018-10-02T02:19:42.882Z,10.96
2018-10-02T02:22:12.142Z,10.94
2018-10-02T02:24:41.272Z,10.98
2018-10-02T02:27:10.405Z,10.94
2018-10-02T02:29:39.886Z,11.04
2018-10-02T02:32:09.042Z,11.00
2018-10-02T02:34:38.190Z,10.93
2018-10-02T02:37:07.822Z,10.89
2018-10-02T02:39:36.958Z,10.86
2018-10-02T02:42:06.117Z,10.84
2018-10-02T02:44:35.267Z,10.86
2018-10-02T02:47:09.530Z,10.82
2018-10-02T02:49:43.878Z,10.69
2018-10-02T02:52:13.663Z,10.61
2018-10-02T02:54:42.814Z,10.66
2018-10-02T02:57:11.967Z,10.57
2018-10-02T02:59:41.375Z,10.60
2018-10-02T03:02:10.526Z,10.57
2018-10-02T03:04:39.677Z,10.58
2018-10-02T03:07:08.825Z,10.51
2018-10-02T03:09:37.966Z,10.53
2018-10-02T03:12:07.143Z,10.41
2018-10-02T03:14:36.278Z,10.21
2018-10-02T03:17:05.429Z,10.11
2018-10-02T03:19:34.598Z,10.01
2018-10-02T03:22:03.759Z,9.98
2018-10-02T03:24:32.883Z,9.95
2018-10-02T03:27:02.029Z,9.95
2018-10-02T03:29:31.154Z,9.83
2018-10-02T03:32:00.349Z,9.79
2018-10-02T03:34:29.558Z,9.85
2018-10-02T03:36:58.706Z,9.77
2018-10-02T03:39:27.858Z,9.73
2018-10-02T03:41:56.981Z,9.80
2018-10-02T03:44:26.113Z,9.80
2018-10-02T03:46:55.314Z,9.75
2018-10-02T03:49:24.453Z,9.75
2018-10-02T03:51:53.598Z,9.81
2018-10-02T03:54:22.731Z,9.81
2018-10-02T03:56:51.874Z,9.84
2018-10-02T03:59:21.001Z,9.80
2018-10-02T04:01:50.134Z,9.81
2018-10-02T04:04:19.253Z,9.90
2018-10-02T04:06:48.382Z,9.93
2018-10-02T04:09:18.270Z,9.90
2018-10-02T04:11:48.250Z,9.82
2018-10-02T04:14:18.176Z,9.80
2018-10-02T04:16:48.214Z,9.72
2018-10-02T04:19:18.202Z,9.68
2018-10-02T04:21:48.214Z,9.67
2018-10-02T04:24:18.214Z,9.59
2018-10-02T04:26:48.366Z,9.57
2018-10-02T04:29:18.386Z,9.52
2018-10-02T04:31:48.242Z,9.54
2018-10-02T04:34:18.280Z,9.58
2018-10-02T04:36:48.315Z,9.49
2018-10-02T04:39:18.291Z,9.46
2018-10-02T04:41:48.287Z,9.51
2018-10-02T04:49:23.126Z,9.05
2018-10-02T04:51:52.283Z,9.14
2018-10-02T04:54:21.489Z,9.20
2018-10-02T04:56:50.629Z,9.23
2018-10-02T04:59:20.003Z,9.21
2018-10-02T05:01:49.141Z,9.20
2018-10-02T05:04:18.385Z,9.22
2018-10-02T05:06:48.747Z,9.23
2018-10-02T05:09:18.721Z,9.22
2018-10-02T05:11:48.506Z,9.15
2018-10-02T05:14:18.503Z,9.23
2018-10-02T05:16:48.591Z,9.29
2018-10-02T05:19:18.421Z,9.22
2018-10-02T05:21:48.406Z,9.24
2018-10-02T05:24:18.386Z,9.28
2018-10-02T05:26:48.390Z,9.23
2018-10-02T05:29:18.534Z,9.19
2018-10-02T05:31:48.463Z,9.07
2018-10-02T05:34:18.415Z,8.96
2018-10-02T05:36:48.534Z,9.10
2018-10-02T05:39:17.847Z,9.24
2018-10-02T05:41:46.979Z,9.27
2018-10-02T05:44:16.156Z,9.30
2018-10-02T05:46:45.289Z,9.32
2018-10-02T05:49:14.435Z,9.29
2018-10-02T05:51:43.556Z,9.35
2018-10-02T05:54:12.767Z,9.37
2018-10-02T05:56:41.890Z,9.38
2018-10-02T05:59:11.026Z,9.28
2018-10-02T06:01:40.151Z,9.21
2018-10-02T06:04:09.506Z,9.19
2018-10-02T06:06:38.650Z,9.18
2018-10-02T06:09:10.947Z,9.23
2018-10-02T06:11:40.131Z,9.26
2018-10-02T06:14:10.038Z,9.35
2018-10-02T06:16:39.194Z,9.43
2018-10-02T06:19:08.550Z,9.49
2018-10-02T06:21:37.734Z,9.51
2018-10-02T06:24:07.134Z,9.46
2018-10-02T06:26:36.281Z,9.51
2018-10-02T06:29:05.450Z,9.69
2018-10-02T06:31:34.623Z,9.74
2018-10-02T06:34:03.762Z,9.70
2018-10-02T06:36:32.901Z,9.66
2018-10-02T06:39:02.071Z,9.75
2018-10-02T06:41:31.217Z,9.88
2018-10-02T06:44:01.101Z,9.96
2018-10-02T06:46:30.230Z,9.98
2018-10-02T06:48:59.363Z,9.99
2018-10-02T06:51:28.556Z,10.11
2018-10-02T06:53:57.722Z,10.08
2018-10-02T06:56:26.919Z,10.23
2018-10-02T06:58:56.002Z,10.22
2018-10-02T07:01:25.143Z,10.37
2018-10-02T07:03:54.295Z,10.46
2018-10-02T07:06:23.429Z,10.66
2018-10-02T07:08:52.626Z,10.73
2018-10-02T07:11:21.712Z,10.87
2018-10-02T07:13:50.873Z,11.03
2018-10-02T07:16:20.031Z,10.98
2018-10-02T07:18:49.198Z,10.94
2018-10-02T07:21:18.731Z,10.87
2018-10-02T07:23:48.752Z,10.98
2018-10-02T07:26:18.714Z,10.94
2018-10-02T07:28:48.718Z,11.05
2018-10-02T07:31:18.914Z,11.25
2018-10-02T07:33:49.809Z,11.38
2018-10-02T07:36:18.882Z,11.39
2018-10-02T07:38:48.773Z,11.52
2018-10-02T07:41:18.778Z,11.61
2018-10-02T07:43:48.823Z,11.75
2018-10-02T07:46:18.738Z,11.70
2018-10-02T07:48:48.829Z,11.79
2018-10-02T07:51:18.898Z,11.85
2018-10-02T07:53:48.925Z,11.83
2018-10-02T07:56:18.871Z,11.90
2018-10-02T07:58:48.830Z,11.95
2018-10-02T08:01:18.815Z,12.06
2018-10-02T08:03:48.826Z,12.05
2018-10-02T08:06:18.798Z,12.04
2018-10-02T08:08:48.907Z,12.16
2018-10-02T08:11:18.810Z,12.29
2018-10-02T08:13:48.906Z,12.19
2018-10-02T08:16:18.819Z,12.22
2018-10-02T08:18:48.834Z,12.34
2018-10-02T08:21:18.846Z,12.44
2018-10-02T08:23:48.885Z,12.44
2018-10-02T08:26:18.883Z,12.61
2018-10-02T08:28:48.970Z,12.57
2018-10-02T08:31:18.931Z,12.55
2018-10-02T08:33:48.934Z,12.54
2018-10-02T08:36:19.282Z,12.69
2018-10-02T08:38:48.983Z,12.74
2018-10-02T08:41:18.894Z,12.84
2018-10-02T08:43:48.996Z,12.97
2018-10-02T08:46:18.930Z,13.10
2018-10-02T08:48:49.186Z,13.14
2018-10-02T08:51:18.954Z,13.04
2018-10-02T08:53:49.011Z,13.01
2018-10-02T08:56:18.897Z,13.03
2018-10-02T08:58:49.005Z,12.83
2018-10-02T09:01:19.015Z,13.02
2018-10-02T09:03:48.923Z,13.08
2018-10-02T09:06:19.046Z,13.07
2018-10-02T09:08:48.945Z,13.00
2018-10-02T09:11:18.978Z,13.10
2018-10-02T09:13:48.143Z,13.09
2018-10-02T09:16:17.996Z,13.00
2018-10-02T09:18:47.090Z,13.11
2018-10-02T09:21:16.234Z,12.99
2018-10-02T09:23:45.374Z,13.07
2018-10-02T09:26:14.506Z,13.25
2018-10-02T09:28:43.760Z,13.48
2018-10-02T09:31:17.947Z,13.66
2018-10-02T09:33:52.339Z,13.43
2018-10-02T09:36:26.796Z,13.53
2018-10-02T09:39:01.054Z,13.62
2018-10-02T09:41:35.402Z,13.54
2018-10-02T09:44:05.029Z,13.61
2018-10-02T09:46:34.168Z,13.79
2018-10-02T09:49:03.393Z,13.97
2018-10-02T09:51:32.526Z,13.91
2018-10-02T09:54:01.650Z,13.94
2018-10-02T09:56:36.086Z,13.96
2018-10-02T09:59:05.206Z,13.76
2018-10-02T10:01:39.574Z,13.72
2018-10-02T10:04:08.717Z,13.71
2018-10-02T10:06:37.853Z,13.63
2018-10-02T10:09:08.785Z,13.60
2018-10-02T10:11:37.970Z,13.77
2018-10-02T10:14:07.128Z,13.82
2018-10-02T10:16:36.390Z,13.78
2018-10-02T10:19:05.794Z,13.68
2018-10-02T10:21:34.986Z,13.76
2018-10-02T10:24:04.150Z,13.83
2018-10-02T10:26:33.364Z,13.63
2018-10-02T10:29:02.499Z,13.48
2018-10-02T10:31:31.582Z,13.54
2018-10-02T10:34:01.374Z,13.60
2018-10-02T10:36:30.518Z,13.65
2018-10-02T10:38:59.658Z,13.66
2018-10-02T10:41:28.814Z,13.69
2018-10-02T10:43:57.950Z,13.60
2018-10-02T10:46:27.097Z,13.75
2018-10-02T10:48:56.241Z,13.60
2018-10-02T10:51:25.365Z,13.53
2018-10-02T10:53:54.507Z,13.62
2018-10-02T10:56:23.705Z,13.75
2018-10-02T10:58:52.849Z,13.82
2018-10-02T11:01:21.934Z,13.81
2018-10-02T11:03:51.074Z,13.87
2018-10-02T11:06:20.245Z,13.77
2018-10-02T11:08:49.514Z,13.70
2018-10-02T11:11:19.199Z,13.64
2018-10-02T11:13:49.272Z,13.72
2018-10-02T11:16:19.202Z,13.66
2018-10-02T11:18:49.248Z,13.69
2018-10-02T11:21:19.265Z,13.77
2018-10-02T11:23:49.240Z,13.73
2018-10-02T11:26:19.277Z,13.71
2018-10-02T11:28:49.246Z,13.79
2018-10-02T11:31:19.543Z,13.75
2018-10-02T11:33:49.418Z,13.81
2018-10-02T11:36:19.271Z,13.94
2018-10-02T11:38:49.341Z,13.93
2018-10-02T11:41:19.314Z,13.98
2018-10-02T11:43:49.389Z,14.07
2018-10-02T11:46:19.514Z,13.99
2018-10-02T11:48:49.285Z,14.09
2018-10-02T11:51:19.524Z,14.07
2018-10-02T11:53:49.383Z,14.30
2018-10-02T11:56:19.519Z,14.26
2018-10-02T11:58:49.323Z,14.35
2018-10-02T12:01:19.415Z,14.26
2018-10-02T12:03:49.408Z,14.13
2018-10-02T12:06:19.367Z,14.20
2018-10-02T12:08:49.415Z,14.07
2018-10-02T12:11:19.526Z,14.16
2018-10-02T12:13:49.493Z,14.23
2018-10-02T12:16:19.514Z,14.24
2018-10-02T12:18:49.358Z,14.27
2018-10-02T12:21:19.524Z,14.42
2018-10-02T12:23:49.483Z,14.25
2018-10-02T12:26:19.579Z,14.41
2018-10-02T12:28:49.431Z,14.42
2018-10-02T12:31:19.601Z,14.42
2018-10-02T12:33:49.478Z,14.49
2018-10-02T12:36:19.478Z,14.63
2018-10-02T12:38:49.584Z,14.48
2018-10-02T12:41:19.519Z,14.48
2018-10-02T12:43:49.415Z,14.38
2018-10-02T12:46:19.548Z,14.44
2018-10-02T12:48:49.429Z,14.29
2018-10-02T12:51:20.739Z,14.33
2018-10-02T12:53:49.814Z,14.21
2018-10-02T12:56:19.467Z,14.15
2018-10-02T12:58:49.488Z,14.08
2018-10-02T13:01:19.598Z,14.05
2018-10-02T13:03:49.573Z,13.92
2018-10-02T13:06:19.579Z,13.99
2018-10-02T13:08:49.599Z,14.09
2018-10-02T13:11:19.582Z,14.01
2018-10-02T13:13:49.570Z,13.94
2018-10-02T13:16:19.550Z,14.01
2018-10-02T13:18:49.837Z,13.89
2018-10-02T13:21:19.587Z,13.88
2018-10-02T13:23:49.602Z,13.89
2018-10-02T13:26:19.614Z,13.99
2018-10-02T13:28:49.646Z,13.91
2018-10-02T13:31:19.665Z,13.81
2018-10-02T13:33:49.610Z,13.82
2018-10-02T13:36:19.578Z,13.70
2018-10-02T13:38:49.601Z,13.61
2018-10-02T13:41:19.679Z,13.52
2018-10-02T13:43:49.647Z,13.45
2018-10-02T13:46:19.674Z,13.61
2018-10-02T13:48:56.269Z,13.61
2018-10-02T13:51:25.397Z,13.42
2018-10-02T13:53:54.537Z,13.49
2018-10-02T13:56:23.667Z,13.42
2018-10-02T13:58:52.814Z,13.61
2018-10-02T14:01:22.001Z,13.50
2018-10-02T14:03:51.116Z,13.52
2018-10-02T14:06:20.249Z,13.57
2018-10-02T14:08:50.775Z,13.51
2018-10-02T14:11:19.902Z,13.47
2018-10-02T14:13:49.757Z,13.40
2018-10-02T14:16:19.775Z,13.42
2018-10-02T14:18:49.696Z,13.44
2018-10-02T14:21:19.653Z,13.40
2018-10-02T14:23:49.687Z,13.50
2018-10-02T14:26:19.731Z,13.37
2018-10-02T14:28:49.754Z,13.41
2018-10-02T14:31:19.773Z,13.47
2018-10-02T14:33:49.785Z,13.52
2018-10-02T14:36:19.706Z,13.65
2018-10-02T14:38:49.718Z,13.83
2018-10-02T14:41:19.741Z,13.79
2018-10-02T14:43:49.800Z,13.78
2018-10-02T14:46:19.767Z,13.62
2018-10-02T14:48:49.810Z,13.50
2018-10-02T14:51:19.810Z,13.55
2018-10-02T14:53:49.777Z,13.64
2018-10-02T14:56:19.867Z,13.66
2018-10-02T14:58:49.922Z,13.84
2018-10-02T15:01:19.058Z,13.84
2018-10-02T15:03:48.202Z,13.86
2018-10-02T15:06:17.335Z,13.77
2018-10-02T15:08:46.466Z,13.72
2018-10-02T15:11:15.632Z,13.92
2018-10-02T15:13:44.790Z,13.75
2018-10-02T15:16:13.923Z,13.89
2018-10-02T15:18:43.058Z,13.89
2018-10-02T15:21:12.215Z,13.71
2018-10-02T15:23:41.350Z,13.76
2018-10-02T15:26:10.507Z,13.90
2018-10-02T15:28:39.627Z,13.95
2018-10-02T15:31:08.778Z,13.79
2018-10-02T15:33:37.910Z,13.62
2018-10-02T15:36:07.071Z,13.64
2018-10-02T15:38:36.200Z,13.48
2018-10-02T15:41:05.337Z,13.59
2018-10-02T15:43:34.476Z,13.65
2018-10-02T15:46:03.626Z,13.57
2018-10-02T15:48:32.751Z,13.76
2018-10-02T15:51:01.963Z,13.72
2018-10-02T15:53:31.032Z,13.61
2018-10-02T15:56:00.175Z,13.62
2018-10-02T15:58:29.550Z,13.64
2018-10-02T16:00:58.717Z,13.67
2018-10-02T16:03:27.925Z,13.86
2018-10-02T16:05:57.046Z,13.94
2018-10-02T16:08:26.177Z,13.87
2018-10-02T16:10:55.636Z,13.87
2018-10-02T16:13:24.825Z,13.87
2018-10-02T16:15:54.207Z,13.89
2018-10-02T16:18:23.447Z,13.83
2018-10-02T16:20:52.651Z,13.91
2018-10-02T16:23:21.787Z,13.89
2018-10-02T16:25:51.271Z,13.81
2018-10-02T16:28:20.394Z,13.99
2018-10-02T16:30:50.202Z,14.01
2018-10-02T16:33:19.640Z,13.98
2018-10-02T16:35:50.757Z,13.91
2018-10-02T16:38:19.975Z,13.71
2018-10-02T16:40:50.125Z,13.68
2018-10-02T16:43:20.089Z,13.75
2018-10-02T16:45:49.982Z,13.70
2018-10-02T16:48:20.022Z,13.77
2018-10-02T16:50:58.469Z,13.77
2018-10-02T16:53:33.849Z,13.88
2018-10-02T16:56:02.978Z,13.82
2018-10-02T16:58:32.206Z,13.79
2018-10-02T17:01:01.344Z,13.88
2018-10-02T17:03:30.486Z,13.88
2018-10-02T17:05:59.630Z,13.85
2018-10-02T17:08:28.759Z,13.60
2018-10-02T17:10:57.894Z,13.48
2018-10-02T17:13:27.038Z,13.40
2018-10-02T17:15:56.226Z,13.31
2018-10-02T17:18:25.356Z,13.39
2018-10-02T17:20:54.503Z,13.41
2018-10-02T17:23:23.645Z,13.30
2018-10-02T17:25:52.802Z,13.30
2018-10-02T17:28:21.928Z,13.22
2018-10-02T17:30:51.162Z,13.24
2018-10-02T17:33:20.291Z,13.32
2018-10-02T17:35:50.126Z,13.40
2018-10-02T17:38:20.498Z,13.45
2018-10-02T17:40:50.181Z,13.52
2018-10-02T17:43:20.173Z,13.47
2018-10-02T17:45:49.322Z,13.55
2018-10-02T17:48:18.450Z,13.47
2018-10-02T17:50:47.630Z,13.45
2018-10-02T17:53:16.772Z,13.48
2018-10-02T17:55:45.915Z,13.56
2018-10-02T17:58:15.107Z,13.57
2018-10-02T18:00:44.262Z,13.52
2018-10-02T18:03:13.409Z,13.22
2018-10-02T18:05:42.663Z,13.35
2018-10-02T18:08:11.796Z,13.47
2018-10-02T18:10:40.934Z,13.44
2018-10-02T18:13:10.066Z,13.41
2018-10-02T18:15:39.362Z,13.41
2018-10-02T18:18:08.401Z,13.53
2018-10-02T18:20:37.602Z,13.54
2018-10-02T18:23:06.810Z,13.38
2018-10-02T18:25:36.002Z,13.45
2018-10-02T18:28:05.102Z,13.49
2018-10-02T18:30:34.242Z,13.50
2018-10-02T18:33:03.484Z,13.40
2018-10-02T18:35:32.553Z,13.57
2018-10-02T18:38:01.700Z,13.47
2018-10-02T18:40:30.842Z,13.57
2018-10-02T18:43:00.109Z,13.47
2018-10-02T18:45:29.257Z,13.46
2018-10-02T18:47:58.475Z,13.31
2018-10-02T18:50:27.857Z,13.41
2018-10-02T18:52:57.066Z,13.33
2018-10-02T18:55:26.350Z,13.28
2018-10-02T18:57:55.563Z,13.20
2018-10-02T19:00:24.694Z,13.23
2018-10-02T19:02:53.827Z,13.23
2018-10-02T19:05:22.965Z,13.14
2018-10-02T19:07:52.361Z,13.28
2018-10-02T19:10:21.502Z,13.33
2018-10-02T19:12:50.629Z,13.27
2018-10-02T19:15:20.458Z,13.25
2018-10-02T19:17:50.654Z,13.36
2018-10-02T19:20:25.726Z,13.38
2018-10-02T19:22:54.917Z,13.59
2018-10-02T19:25:29.559Z,13.57
2018-10-02T19:27:58.702Z,13.53
2018-10-02T19:30:33.134Z,13.58
2018-10-02T19:33:02.363Z,13.35
2018-10-02T19:35:31.490Z,13.39
2018-10-02T19:39:06.511Z,13.51
2018-10-02T19:41:35.688Z,13.43
2018-10-02T19:44:04.811Z,13.72
2018-10-02T19:46:51.811Z,13.63
2018-10-02T19:49:23.295Z,13.73
2018-10-02T19:52:00.554Z,13.73
2018-10-02T19:54:29.751Z,13.91
2018-10-02T19:56:58.915Z,13.87
2018-10-02T19:59:28.139Z,13.93
2018-10-02T20:01:57.279Z,13.85
2018-10-02T20:04:26.447Z,13.80
2018-10-02T20:06:55.641Z,13.78
2018-10-02T20:09:24.787Z,13.81
2018-10-02T20:11:53.946Z,13.73
2018-10-02T20:14:23.165Z,13.88
2018-10-02T20:16:52.303Z,13.81
2018-10-02T20:19:21.442Z,13.68
2018-10-02T20:21:50.578Z,13.82
2018-10-02T20:24:20.594Z,13.85
2018-10-02T20:26:50.799Z,13.68
2018-10-02T20:29:20.586Z,13.80
2018-10-02T20:31:52.366Z,13.89
2018-10-02T20:34:21.516Z,13.88
2018-10-02T20:36:50.722Z,13.88
2018-10-02T20:39:20.590Z,13.92
2018-10-02T20:41:50.603Z,13.95
2018-10-02T20:44:20.659Z,13.94
2018-10-02T20:46:50.562Z,13.87
2018-10-02T20:49:20.751Z,13.92
2018-10-02T20:51:50.626Z,13.93
2018-10-02T20:54:19.834Z,13.80
2018-10-02T20:56:48.982Z,13.90
2018-10-02T20:59:18.122Z,13.93
2018-10-02T21:01:47.312Z,13.97
2018-10-02T21:04:16.465Z,14.03
2018-10-02T21:06:45.615Z,13.82
2018-10-02T21:09:14.756Z,13.92
2018-10-02T21:11:43.897Z,13.85
2018-10-02T21:14:13.037Z,13.76
2018-10-02T21:16:42.166Z,13.67
2018-10-02T21:19:11.314Z,13.68
2018-10-02T21:21:40.581Z,13.81
2018-10-02T21:24:09.689Z,13.64
2018-10-02T21:26:38.834Z,13.63
2018-10-02T21:29:07.974Z,13.71
2018-10-02T21:31:37.182Z,13.67
2018-10-02T21:34:06.287Z,13.78
2018-10-02T21:36:35.466Z,13.70
2018-10-02T21:39:06.006Z,13.80
2018-10-02T21:41:35.186Z,13.78
2018-10-02T21:44:04.414Z,13.75
2018-10-02T21:46:33.549Z,13.70
2018-10-02T21:49:02.699Z,13.84
2018-10-02T21:51:31.838Z,13.87
2018-10-02T21:54:00.978Z,13.85
2018-10-02T21:56:30.119Z,13.86
2018-10-02T21:58:59.397Z,13.75
2018-10-02T22:01:30.541Z,13.74
2018-10-02T22:03:59.714Z,13.76
2018-10-02T22:06:28.845Z,13.78
2018-10-02T22:08:58.001Z,13.75
2018-10-02T22:11:27.221Z,13.71
2018-10-02T22:13:56.349Z,13.79
2018-10-02T22:16:25.490Z,13.72
2018-10-02T22:18:54.643Z,13.79
2018-10-02T22:21:23.798Z,13.93
2018-10-02T22:23:52.941Z,13.84
2018-10-02T22:26:22.083Z,13.76
2018-10-02T22:28:51.234Z,13.65
2018-10-02T22:31:20.850Z,13.64
2018-10-02T22:33:50.870Z,13.69
2018-10-02T22:36:20.922Z,13.57
2018-10-02T22:38:51.010Z,13.61
2018-10-02T22:41:20.838Z,13.59
2018-10-02T22:43:51.016Z,13.57
2018-10-02T22:46:20.939Z,13.57
2018-10-02T22:48:50.922Z,13.61
2018-10-02T22:51:21.962Z,13.55
2018-10-02T22:53:51.119Z,13.42
2018-10-02T22:56:20.919Z,13.50
2018-10-02T22:58:51.025Z,13.47
2018-10-02T23:01:21.206Z,13.43
2018-10-02T23:03:51.031Z,13.48
2018-10-02T23:06:20.895Z,13.48
2018-10-02T23:08:51.150Z,13.32
2018-10-02T23:11:21.014Z,13.30
2018-10-02T23:13:50.941Z,13.31
2018-10-02T23:16:20.913Z,13.42
2018-10-02T23:18:50.998Z,13.42
2018-10-02T23:21:20.981Z,13.29
2018-10-02T23:23:50.998Z,13.50
2018-10-02T23:26:21.023Z,13.59
2018-10-02T23:28:51.034Z,13.64
2018-10-02T23:31:21.044Z,13.69
2018-10-02T23:33:51.067Z,13.73
2018-10-02T23:36:21.018Z,13.57
2018-10-02T23:38:51.034Z,13.57
2018-10-02T23:41:21.007Z,13.53
2018-10-02T23:43:51.038Z,13.55
2018-10-02T23:46:21.058Z,13.60
2018-10-02T23:48:51.058Z,13.75
2018-10-02T23:51:21.086Z,13.61
2018-10-02T23:53:51.012Z,13.54
2018-10-02T23:56:21.201Z,13.62
2018-10-02T23:58:51.173Z,13.61
